メインページ
METAR-TAF:

METAR-TAF

空港 :

カムループス, ブリティッシュコロンビア州, カナダ

緯度: 50-42N, 経度: 120-27W, 海抜: 345m

現時点の気象観測

当レポートは18分前の17:00(UTC)に作成
東/南東の風 9kt
気温 20°C
湿度 56%
気圧 1019 hPa
視程: 64.4km
晴天

METAR: CYKA 211700Z 11009KT 40SM SKC 20/11 A3009 RMK SLP190 DENSITY ALT 1900FT

時間: 10:18 (17:18 UTC)

予報

当レポートは4時間39分前の12:39(UTC)に作成
予報は21日の 13時(UTC)から 22日の 01時(UTC)まで有効
の風 10kt
視程: 10km
高度25000ftの雲は散在している
21日の 2000時(UTC)から
の風 10kt
視程: 10km
高度8000ftの千切れ雲あり
21日の 20時(UTC)から 22日の 01時(UTC)まで一時的に
高度8000ftの雲は散在している

TAF: CYKA 211239Z 2113/2201 10010KT P6SM SCT250 FM212000 09010KT P6SM BKN080 TEMPO 2120/2201 SCT080 RMK NXT FCST BY 211900Z

4,000以上の空港の気象観測と天気予報(METAR報とTAF報)

利用可能な観測所は地図上に黄色い丸と赤い丸で示す。

丸の上にカーソルを重ねると観測所名を参照できる。

次にクリックすると気象観測と天気予報を参照できる。

マップの切り替え:黒色「×」印の緑ボタンをクリックして拡大、「-」印の緑ボタンをクリックして縮小、緑色の三角印をクリックして隣りの地図に切り替え


METAR-TAF: